sensor_id;sensor_type;location;lat;lon;timestamp;temperature;humidity
74420;DHT22;62855;50.718;-2.460;2023-06-10T00:02:06;64.04;65.00
74420;DHT22;62855;50.718;-2.460;2023-06-10T00:05:07;64.04;65.00
74420;DHT22;62855;50.718;-2.460;2023-06-10T00:08:06;64.04;65.00
74420;DHT22;62855;50.718;-2.460;2023-06-10T00:11:07;64.04;65.00
74420;DHT22;62855;50.718;-2.460;2023-06-10T00:14:06;63.86;65.00
74420;DHT22;62855;50.718;-2.460;2023-06-10T00:17:06;63.86;65.00
74420;DHT22;62855;50.718;-2.460;2023-06-10T00:20:08;63.86;66.00
74420;DHT22;62855;50.718;-2.460;2023-06-10T00:23:06;63.86;66.00
74420;DHT22;62855;50.718;-2.460;2023-06-10T00:26:07;63.68;66.00
74420;DHT22;62855;50.718;-2.460;2023-06-10T00:29:06;63.68;66.00
74420;DHT22;62855;50.718;-2.460;2023-06-10T00:32:07;63.50;67.00
74420;DHT22;62855;50.718;-2.460;2023-06-10T00:35:07;63.50;67.00
74420;DHT22;62855;50.718;-2.460;2023-06-10T00:38:06;63.50;67.00
74420;DHT22;62855;50.718;-2.460;2023-06-10T00:41:06;63.50;67.00
74420;DHT22;62855;50.718;-2.460;2023-06-10T00:44:07;63.32;68.00
74420;DHT22;62855;50.718;-2.460;2023-06-10T00:47:07;63.50;68.00
74420;DHT22;62855;50.718;-2.460;2023-06-10T00:50:07;63.32;68.00
74420;DHT22;62855;50.718;-2.460;2023-06-10T00:53:07;63.50;68.00
74420;DHT22;62855;50.718;-2.460;2023-06-10T00:56:06;63.32;68.00
74420;DHT22;62855;50.718;-2.460;2023-06-10T00:59:06;63.32;68.00
74420;DHT22;62855;50.718;-2.460;2023-06-10T01:02:06;63.32;68.00
74420;DHT22;62855;50.718;-2.460;2023-06-10T01:05:07;63.32;69.00
74420;DHT22;62855;50.718;-2.460;2023-06-10T01:08:14;63.32;69.00
74420;DHT22;62855;50.718;-2.460;2023-06-10T01:11:11;63.32;69.00
74420;DHT22;62855;50.718;-2.460;2023-06-10T01:14:07;63.32;69.00
74420;DHT22;62855;50.718;-2.460;2023-06-10T01:17:07;63.14;70.00
74420;DHT22;62855;50.718;-2.460;2023-06-10T01:20:07;63.14;70.00
74420;DHT22;62855;50.718;-2.460;2023-06-10T01:23:07;63.14;70.00
74420;DHT22;62855;50.718;-2.460;2023-06-10T01:26:10;62.96;70.00
74420;DHT22;62855;50.718;-2.460;2023-06-10T01:29:09;62.96;70.00
74420;DHT22;62855;50.718;-2.460;2023-06-10T01:32:13;62.96;70.00
74420;DHT22;62855;50.718;-2.460;2023-06-10T01:35:08;62.78;70.00
74420;DHT22;62855;50.718;-2.460;2023-06-10T01:38:07;62.78;70.00
74420;DHT22;62855;50.718;-2.460;2023-06-10T01:41:07;62.78;71.00
74420;DHT22;62855;50.718;-2.460;2023-06-10T01:44:07;62.78;71.00
74420;DHT22;62855;50.718;-2.460;2023-06-10T01:47:06;62.60;71.00
74420;DHT22;62855;50.718;-2.460;2023-06-10T01:50:07;62.60;71.00
74420;DHT22;62855;50.718;-2.460;2023-06-10T01:53:06;62.60;71.00
74420;DHT22;62855;50.718;-2.460;2023-06-10T01:56:06;62.60;71.00
74420;DHT22;62855;50.718;-2.460;2023-06-10T01:59:07;62.60;71.00
74420;DHT22;62855;50.718;-2.460;2023-06-10T02:02:06;62.42;71.00
74420;DHT22;62855;50.718;-2.460;2023-06-10T02:05:06;62.42;72.00
74420;DHT22;62855;50.718;-2.460;2023-06-10T02:08:07;62.42;72.00
74420;DHT22;62855;50.718;-2.460;2023-06-10T02:11:06;62.24;75.00
74420;DHT22;62855;50.718;-2.460;2023-06-10T02:14:06;62.24;75.00
74420;DHT22;62855;50.718;-2.460;2023-06-10T02:17:06;62.06;75.00
74420;DHT22;62855;50.718;-2.460;2023-06-10T02:20:07;62.06;76.00
74420;DHT22;62855;50.718;-2.460;2023-06-10T02:23:06;61.88;76.00
74420;DHT22;62855;50.718;-2.460;2023-06-10T02:26:06;61.88;76.00
74420;DHT22;62855;50.718;-2.460;2023-06-10T02:29:06;61.70;76.00
74420;DHT22;62855;50.718;-2.460;2023-06-10T02:32:08;61.70;76.00
74420;DHT22;62855;50.718;-2.460;2023-06-10T02:35:06;61.52;76.00
74420;DHT22;62855;50.718;-2.460;2023-06-10T02:38:06;61.52;77.00
74420;DHT22;62855;50.718;-2.460;2023-06-10T02:41:06;61.34;77.00
74420;DHT22;62855;50.718;-2.460;2023-06-10T02:44:06;61.34;77.00
74420;DHT22;62855;50.718;-2.460;2023-06-10T02:47:06;61.34;77.00
74420;DHT22;62855;50.718;-2.460;2023-06-10T02:50:07;61.34;77.00
74420;DHT22;62855;50.718;-2.460;2023-06-10T02:53:06;61.34;77.00
74420;DHT22;62855;50.718;-2.460;2023-06-10T02:56:06;61.16;78.00
74420;DHT22;62855;50.718;-2.460;2023-06-10T02:59:06;60.98;78.00
74420;DHT22;62855;50.718;-2.460;2023-06-10T03:02:06;60.98;78.00
74420;DHT22;62855;50.718;-2.460;2023-06-10T03:05:07;60.98;78.00
74420;DHT22;62855;50.718;-2.460;2023-06-10T03:08:06;60.80;78.00
74420;DHT22;62855;50.718;-2.460;2023-06-10T03:11:07;60.80;78.00
74420;DHT22;62855;50.718;-2.460;2023-06-10T03:14:06;60.80;78.00
74420;DHT22;62855;50.718;-2.460;2023-06-10T03:17:06;60.80;79.00
74420;DHT22;62855;50.718;-2.460;2023-06-10T03:20:07;60.80;79.00
74420;DHT22;62855;50.718;-2.460;2023-06-10T03:23:06;60.80;79.00
74420;DHT22;62855;50.718;-2.460;2023-06-10T03:26:06;60.80;79.00
74420;DHT22;62855;50.718;-2.460;2023-06-10T03:29:06;60.80;79.00
74420;DHT22;62855;50.718;-2.460;2023-06-10T03:32:06;60.80;79.00
74420;DHT22;62855;50.718;-2.460;2023-06-10T03:35:07;60.98;79.00
74420;DHT22;62855;50.718;-2.460;2023-06-10T03:38:06;60.98;79.00
74420;DHT22;62855;50.718;-2.460;2023-06-10T03:41:06;60.98;79.00
74420;DHT22;62855;50.718;-2.460;2023-06-10T03:44:06;60.98;79.00
74420;DHT22;62855;50.718;-2.460;2023-06-10T03:47:06;60.80;79.00
74420;DHT22;62855;50.718;-2.460;2023-06-10T03:50:07;60.80;78.00
74420;DHT22;62855;50.718;-2.460;2023-06-10T03:53:06;60.80;78.00
74420;DHT22;62855;50.718;-2.460;2023-06-10T03:56:07;60.62;79.00
74420;DHT22;62855;50.718;-2.460;2023-06-10T03:59:06;60.62;79.00
74420;DHT22;62855;50.718;-2.460;2023-06-10T04:02:06;60.62;79.00
74420;DHT22;62855;50.718;-2.460;2023-06-10T04:05:07;60.44;79.00
74420;DHT22;62855;50.718;-2.460;2023-06-10T04:08:06;60.44;79.00
74420;DHT22;62855;50.718;-2.460;2023-06-10T04:11:06;60.44;79.00
74420;DHT22;62855;50.718;-2.460;2023-06-10T04:14:06;60.44;79.00
74420;DHT22;62855;50.718;-2.460;2023-06-10T04:17:06;60.44;79.00
74420;DHT22;62855;50.718;-2.460;2023-06-10T04:20:07;60.44;78.00
74420;DHT22;62855;50.718;-2.460;2023-06-10T04:23:06;60.44;78.00
74420;DHT22;62855;50.718;-2.460;2023-06-10T04:26:07;60.44;78.00
74420;DHT22;62855;50.718;-2.460;2023-06-10T04:29:06;60.26;78.00
74420;DHT22;62855;50.718;-2.460;2023-06-10T04:32:07;60.08;78.00
74420;DHT22;62855;50.718;-2.460;2023-06-10T04:35:07;60.08;79.00
74420;DHT22;62855;50.718;-2.460;2023-06-10T04:38:06;59.90;79.00
74420;DHT22;62855;50.718;-2.460;2023-06-10T04:41:07;59.90;79.00
74420;DHT22;62855;50.718;-2.460;2023-06-10T04:44:06;59.90;79.00
74420;DHT22;62855;50.718;-2.460;2023-06-10T04:47:07;59.72;79.00
74420;DHT22;62855;50.718;-2.460;2023-06-10T04:50:07;59.72;79.00
74420;DHT22;62855;50.718;-2.460;2023-06-10T04:53:06;59.72;79.00
74420;DHT22;62855;50.718;-2.460;2023-06-10T04:56:06;59.72;79.00
74420;DHT22;62855;50.718;-2.460;2023-06-10T04:59:06;59.72;79.00
74420;DHT22;62855;50.718;-2.460;2023-06-10T05:02:06;59.54;79.00
74420;DHT22;62855;50.718;-2.460;2023-06-10T05:05:07;59.54;79.00
74420;DHT22;62855;50.718;-2.460;2023-06-10T05:08:06;59.54;79.00
74420;DHT22;62855;50.718;-2.460;2023-06-10T05:11:06;59.36;79.00
74420;DHT22;62855;50.718;-2.460;2023-06-10T05:14:07;59.36;79.00
74420;DHT22;62855;50.718;-2.460;2023-06-10T05:17:06;59.36;79.00
74420;DHT22;62855;50.718;-2.460;2023-06-10T05:20:07;59.36;79.00
74420;DHT22;62855;50.718;-2.460;2023-06-10T05:23:06;59.36;79.00
74420;DHT22;62855;50.718;-2.460;2023-06-10T05:26:06;59.54;80.00
74420;DHT22;62855;50.718;-2.460;2023-06-10T05:29:06;59.54;80.00
74420;DHT22;62855;50.718;-2.460;2023-06-10T05:32:08;59.54;80.00
74420;DHT22;62855;50.718;-2.460;2023-06-10T05:35:07;59.72;80.00
74420;DHT22;62855;50.718;-2.460;2023-06-10T05:38:06;59.90;80.00
74420;DHT22;62855;50.718;-2.460;2023-06-10T05:41:06;59.90;80.00
74420;DHT22;62855;50.718;-2.460;2023-06-10T05:44:06;60.08;80.00
74420;DHT22;62855;50.718;-2.460;2023-06-10T05:47:06;60.26;80.00
74420;DHT22;62855;50.718;-2.460;2023-06-10T05:50:07;60.44;80.00
74420;DHT22;62855;50.718;-2.460;2023-06-10T05:53:06;60.44;79.00
74420;DHT22;62855;50.718;-2.460;2023-06-10T05:56:06;60.62;79.00
74420;DHT22;62855;50.718;-2.460;2023-06-10T05:59:06;60.98;79.00
74420;DHT22;62855;50.718;-2.460;2023-06-10T06:02:06;61.16;79.00
74420;DHT22;62855;50.718;-2.460;2023-06-10T06:05:07;61.34;78.00
74420;DHT22;62855;50.718;-2.460;2023-06-10T06:08:07;61.52;78.00
74420;DHT22;62855;50.718;-2.460;2023-06-10T06:11:06;61.52;77.00
74420;DHT22;62855;50.718;-2.460;2023-06-10T06:14:06;61.52;77.00
74420;DHT22;62855;50.718;-2.460;2023-06-10T06:17:06;61.70;76.00
74420;DHT22;62855;50.718;-2.460;2023-06-10T06:20:07;61.70;76.00
74420;DHT22;62855;50.718;-2.460;2023-06-10T06:23:06;61.88;76.00
74420;DHT22;62855;50.718;-2.460;2023-06-10T06:26:07;62.06;76.00
74420;DHT22;62855;50.718;-2.460;2023-06-10T06:29:06;62.24;76.00
74420;DHT22;62855;50.718;-2.460;2023-06-10T06:32:07;62.42;75.00
74420;DHT22;62855;50.718;-2.460;2023-06-10T06:35:07;62.42;75.00
74420;DHT22;62855;50.718;-2.460;2023-06-10T06:38:06;62.42;75.00
74420;DHT22;62855;50.718;-2.460;2023-06-10T06:41:06;62.60;72.00
74420;DHT22;62855;50.718;-2.460;2023-06-10T06:44:06;62.60;72.00
74420;DHT22;62855;50.718;-2.460;2023-06-10T06:47:07;62.96;72.00
74420;DHT22;62855;50.718;-2.460;2023-06-10T06:50:07;63.14;72.00
74420;DHT22;62855;50.718;-2.460;2023-06-10T06:53:06;63.32;71.00
74420;DHT22;62855;50.718;-2.460;2023-06-10T06:56:06;63.50;71.00
74420;DHT22;62855;50.718;-2.460;2023-06-10T06:59:06;64.04;71.00
74420;DHT22;62855;50.718;-2.460;2023-06-10T07:02:06;64.40;71.00
74420;DHT22;62855;50.718;-2.460;2023-06-10T07:05:07;64.76;70.00
74420;DHT22;62855;50.718;-2.460;2023-06-10T07:08:07;64.76;70.00
74420;DHT22;62855;50.718;-2.460;2023-06-10T07:11:06;64.76;70.00
74420;DHT22;62855;50.718;-2.460;2023-06-10T07:14:06;65.12;70.00
74420;DHT22;62855;50.718;-2.460;2023-06-10T07:17:06;65.66;70.00
74420;DHT22;62855;50.718;-2.460;2023-06-10T07:20:07;66.20;70.00
74420;DHT22;62855;50.718;-2.460;2023-06-10T07:23:06;66.56;67.00
74420;DHT22;62855;50.718;-2.460;2023-06-10T07:26:06;66.56;65.00
74420;DHT22;62855;50.718;-2.460;2023-06-10T07:29:06;66.74;65.00
74420;DHT22;62855;50.718;-2.460;2023-06-10T07:32:07;67.10;65.00
74420;DHT22;62855;50.718;-2.460;2023-06-10T07:35:09;67.82;65.00
74420;DHT22;62855;50.718;-2.460;2023-06-10T07:38:06;68.18;64.00
74420;DHT22;62855;50.718;-2.460;2023-06-10T07:41:06;68.00;63.00
74420;DHT22;62855;50.718;-2.460;2023-06-10T07:44:06;67.82;63.00
74420;DHT22;62855;50.718;-2.460;2023-06-10T07:47:06;67.82;63.00
74420;DHT22;62855;50.718;-2.460;2023-06-10T07:50:07;68.00;63.00
74420;DHT22;62855;50.718;-2.460;2023-06-10T07:53:06;68.18;63.00
74420;DHT22;62855;50.718;-2.460;2023-06-10T07:56:07;68.18;63.00
74420;DHT22;62855;50.718;-2.460;2023-06-10T07:59:07;68.36;64.00
74420;DHT22;62855;50.718;-2.460;2023-06-10T08:02:06;68.72;63.00
74420;DHT22;62855;50.718;-2.460;2023-06-10T08:05:07;69.26;63.00
74420;DHT22;62855;50.718;-2.460;2023-06-10T08:08:06;69.62;62.00
74420;DHT22;62855;50.718;-2.460;2023-06-10T08:11:06;69.80;62.00
74420;DHT22;62855;50.718;-2.460;2023-06-10T08:14:06;69.80;62.00
74420;DHT22;62855;50.718;-2.460;2023-06-10T08:17:06;70.16;61.00
74420;DHT22;62855;50.718;-2.460;2023-06-10T08:20:07;70.16;61.00
74420;DHT22;62855;50.718;-2.460;2023-06-10T08:23:06;70.16;61.00
74420;DHT22;62855;50.718;-2.460;2023-06-10T08:26:06;70.34;61.00
74420;DHT22;62855;50.718;-2.460;2023-06-10T08:29:06;70.88;62.00
74420;DHT22;62855;50.718;-2.460;2023-06-10T08:32:07;71.24;61.00
74420;DHT22;62855;50.718;-2.460;2023-06-10T08:35:07;71.78;57.00
74420;DHT22;62855;50.718;-2.460;2023-06-10T08:38:06;72.32;57.00
74420;DHT22;62855;50.718;-2.460;2023-06-10T08:41:06;72.32;55.00
74420;DHT22;62855;50.718;-2.460;2023-06-10T08:44:09;72.50;56.00
74420;DHT22;62855;50.718;-2.460;2023-06-10T08:47:10;72.50;55.00
74420;DHT22;62855;50.718;-2.460;2023-06-10T08:50:06;72.86;57.00
74420;DHT22;62855;50.718;-2.460;2023-06-10T08:53:07;72.68;54.00
74420;DHT22;62855;50.718;-2.460;2023-06-10T08:56:06;72.32;54.00
74420;DHT22;62855;50.718;-2.460;2023-06-10T08:59:07;72.14;55.00
74420;DHT22;62855;50.718;-2.460;2023-06-10T09:02:07;72.32;54.00
74420;DHT22;62855;50.718;-2.460;2023-06-10T09:05:07;72.32;55.00
74420;DHT22;62855;50.718;-2.460;2023-06-10T09:08:06;72.68;55.00
74420;DHT22;62855;50.718;-2.460;2023-06-10T09:11:06;73.04;55.00
74420;DHT22;62855;50.718;-2.460;2023-06-10T09:14:06;73.22;55.00
74420;DHT22;62855;50.718;-2.460;2023-06-10T09:17:06;73.40;54.00
74420;DHT22;62855;50.718;-2.460;2023-06-10T09:20:07;73.22;54.00
74420;DHT22;62855;50.718;-2.460;2023-06-10T09:23:07;73.22;54.00
74420;DHT22;62855;50.718;-2.460;2023-06-10T09:26:09;73.94;54.00
74420;DHT22;62855;50.718;-2.460;2023-06-10T09:29:07;74.48;58.00
74420;DHT22;62855;50.718;-2.460;2023-06-10T09:32:07;74.66;58.00
74420;DHT22;62855;50.718;-2.460;2023-06-10T09:35:09;75.02;54.00
74420;DHT22;62855;50.718;-2.460;2023-06-10T09:38:06;74.66;53.00
74420;DHT22;62855;50.718;-2.460;2023-06-10T09:41:06;74.66;54.00
74420;DHT22;62855;50.718;-2.460;2023-06-10T09:44:11;74.48;53.00
74420;DHT22;62855;50.718;-2.460;2023-06-10T09:47:06;74.48;54.00
74420;DHT22;62855;50.718;-2.460;2023-06-10T09:50:06;74.48;54.00
74420;DHT22;62855;50.718;-2.460;2023-06-10T09:53:06;74.30;54.00
74420;DHT22;62855;50.718;-2.460;2023-06-10T09:56:06;74.66;53.00
74420;DHT22;62855;50.718;-2.460;2023-06-10T09:59:07;75.02;54.00
74420;DHT22;62855;50.718;-2.460;2023-06-10T10:02:06;75.20;52.00
74420;DHT22;62855;50.718;-2.460;2023-06-10T10:05:06;75.20;53.00
74420;DHT22;62855;50.718;-2.460;2023-06-10T10:08:06;75.56;53.00
74420;DHT22;62855;50.718;-2.460;2023-06-10T10:11:07;75.74;54.00
74420;DHT22;62855;50.718;-2.460;2023-06-10T10:14:07;76.46;52.00
74420;DHT22;62855;50.718;-2.460;2023-06-10T10:17:09;76.46;52.00
74420;DHT22;62855;50.718;-2.460;2023-06-10T10:20:08;75.38;53.00
74420;DHT22;62855;50.718;-2.460;2023-06-10T10:23:08;75.56;53.00
74420;DHT22;62855;50.718;-2.460;2023-06-10T10:26:09;75.20;52.00
74420;DHT22;62855;50.718;-2.460;2023-06-10T10:29:10;74.48;53.00
74420;DHT22;62855;50.718;-2.460;2023-06-10T10:32:07;74.30;54.00
74420;DHT22;62855;50.718;-2.460;2023-06-10T10:35:08;74.48;55.00
74420;DHT22;62855;50.718;-2.460;2023-06-10T10:38:07;74.66;55.00
74420;DHT22;62855;50.718;-2.460;2023-06-10T10:41:06;74.48;54.00
74420;DHT22;62855;50.718;-2.460;2023-06-10T10:44:07;74.48;55.00
74420;DHT22;62855;50.718;-2.460;2023-06-10T10:47:08;74.66;55.00
74420;DHT22;62855;50.718;-2.460;2023-06-10T10:50:13;74.48;55.00
74420;DHT22;62855;50.718;-2.460;2023-06-10T10:53:07;74.12;54.00
74420;DHT22;62855;50.718;-2.460;2023-06-10T10:56:08;73.76;55.00
74420;DHT22;62855;50.718;-2.460;2023-06-10T10:59:07;73.76;55.00
74420;DHT22;62855;50.718;-2.460;2023-06-10T11:02:07;73.58;55.00
74420;DHT22;62855;50.718;-2.460;2023-06-10T11:05:08;73.40;55.00
74420;DHT22;62855;50.718;-2.460;2023-06-10T11:08:08;73.22;55.00
74420;DHT22;62855;50.718;-2.460;2023-06-10T11:14:08;73.04;55.00
74420;DHT22;62855;50.718;-2.460;2023-06-10T11:17:18;72.86;56.00
74420;DHT22;62855;50.718;-2.460;2023-06-10T11:20:07;72.68;55.00
74420;DHT22;62855;50.718;-2.460;2023-06-10T11:23:06;72.68;56.00
74420;DHT22;62855;50.718;-2.460;2023-06-10T11:26:14;72.50;56.00
74420;DHT22;62855;50.718;-2.460;2023-06-10T11:29:07;72.50;56.00
74420;DHT22;62855;50.718;-2.460;2023-06-10T11:32:06;72.68;56.00
74420;DHT22;62855;50.718;-2.460;2023-06-10T11:35:07;72.86;56.00
74420;DHT22;62855;50.718;-2.460;2023-06-10T11:38:06;73.04;55.00
74420;DHT22;62855;50.718;-2.460;2023-06-10T11:41:06;73.04;55.00
74420;DHT22;62855;50.718;-2.460;2023-06-10T11:44:08;72.86;55.00
74420;DHT22;62855;50.718;-2.460;2023-06-10T11:47:09;72.86;55.00
74420;DHT22;62855;50.718;-2.460;2023-06-10T11:50:06;72.86;55.00
74420;DHT22;62855;50.718;-2.460;2023-06-10T11:53:08;73.04;56.00
74420;DHT22;62855;50.718;-2.460;2023-06-10T11:56:06;73.40;56.00
74420;DHT22;62855;50.718;-2.460;2023-06-10T11:59:07;73.22;54.00
74420;DHT22;62855;50.718;-2.460;2023-06-10T12:02:14;72.86;54.00
74420;DHT22;62855;50.718;-2.460;2023-06-10T12:05:12;72.50;54.00
74420;DHT22;62855;50.718;-2.460;2023-06-10T12:08:08;72.32;55.00
74420;DHT22;62855;50.718;-2.460;2023-06-10T12:11:06;72.14;56.00
74420;DHT22;62855;50.718;-2.460;2023-06-10T12:14:06;72.14;56.00
74420;DHT22;62855;50.718;-2.460;2023-06-10T12:17:06;71.96;56.00
74420;DHT22;62855;50.718;-2.460;2023-06-10T12:20:07;71.96;57.00
74420;DHT22;62855;50.718;-2.460;2023-06-10T12:23:09;71.96;58.00
74420;DHT22;62855;50.718;-2.460;2023-06-10T12:26:06;72.14;57.00
74420;DHT22;62855;50.718;-2.460;2023-06-10T12:29:19;72.14;57.00
74420;DHT22;62855;50.718;-2.460;2023-06-10T12:32:07;72.50;59.00
74420;DHT22;62855;50.718;-2.460;2023-06-10T12:35:08;72.86;59.00
74420;DHT22;62855;50.718;-2.460;2023-06-10T12:38:06;73.04;57.00
74420;DHT22;62855;50.718;-2.460;2023-06-10T12:41:06;72.86;57.00
74420;DHT22;62855;50.718;-2.460;2023-06-10T12:44:06;72.68;58.00
74420;DHT22;62855;50.718;-2.460;2023-06-10T12:47:08;72.68;58.00
74420;DHT22;62855;50.718;-2.460;2023-06-10T12:50:07;72.32;58.00
74420;DHT22;62855;50.718;-2.460;2023-06-10T12:53:07;72.50;60.00
74420;DHT22;62855;50.718;-2.460;2023-06-10T12:56:06;72.68;60.00
74420;DHT22;62855;50.718;-2.460;2023-06-10T12:59:06;73.04;60.00
74420;DHT22;62855;50.718;-2.460;2023-06-10T13:02:06;73.04;60.00
74420;DHT22;62855;50.718;-2.460;2023-06-10T13:05:07;73.04;60.00
74420;DHT22;62855;50.718;-2.460;2023-06-10T13:08:07;73.40;60.00
74420;DHT22;62855;50.718;-2.460;2023-06-10T13:11:06;73.76;61.00
74420;DHT22;62855;50.718;-2.460;2023-06-10T13:14:06;74.12;60.00
74420;DHT22;62855;50.718;-2.460;2023-06-10T13:17:06;74.48;60.00
74420;DHT22;62855;50.718;-2.460;2023-06-10T13:20:08;74.66;59.00
74420;DHT22;62855;50.718;-2.460;2023-06-10T13:23:06;74.84;59.00
74420;DHT22;62855;50.718;-2.460;2023-06-10T13:26:06;74.84;58.00
74420;DHT22;62855;50.718;-2.460;2023-06-10T13:29:06;75.20;60.00
74420;DHT22;62855;50.718;-2.460;2023-06-10T13:32:07;75.56;60.00
74420;DHT22;62855;50.718;-2.460;2023-06-10T13:35:07;75.56;60.00
74420;DHT22;62855;50.718;-2.460;2023-06-10T13:38:06;76.10;60.00
74420;DHT22;62855;50.718;-2.460;2023-06-10T13:41:06;76.82;58.00
74420;DHT22;62855;50.718;-2.460;2023-06-10T13:44:06;77.54;58.00
74420;DHT22;62855;50.718;-2.460;2023-06-10T13:47:06;78.44;57.00
74420;DHT22;62855;50.718;-2.460;2023-06-10T13:50:07;78.98;57.00
74420;DHT22;62855;50.718;-2.460;2023-06-10T13:53:06;79.16;55.00
74420;DHT22;62855;50.718;-2.460;2023-06-10T13:56:07;79.34;55.00
74420;DHT22;62855;50.718;-2.460;2023-06-10T13:59:06;79.34;55.00
74420;DHT22;62855;50.718;-2.460;2023-06-10T14:02:06;79.52;56.00
74420;DHT22;62855;50.718;-2.460;2023-06-10T14:05:07;79.70;56.00
74420;DHT22;62855;50.718;-2.460;2023-06-10T14:08:06;79.70;55.00
74420;DHT22;62855;50.718;-2.460;2023-06-10T14:11:06;79.70;55.00
74420;DHT22;62855;50.718;-2.460;2023-06-10T14:14:06;79.70;55.00
74420;DHT22;62855;50.718;-2.460;2023-06-10T14:17:07;79.70;56.00
74420;DHT22;62855;50.718;-2.460;2023-06-10T14:20:07;79.70;56.00
74420;DHT22;62855;50.718;-2.460;2023-06-10T14:23:06;79.52;56.00
74420;DHT22;62855;50.718;-2.460;2023-06-10T14:26:06;79.52;56.00
74420;DHT22;62855;50.718;-2.460;2023-06-10T14:29:06;79.34;56.00
74420;DHT22;62855;50.718;-2.460;2023-06-10T14:32:06;79.16;57.00
74420;DHT22;62855;50.718;-2.460;2023-06-10T14:35:07;78.98;57.00
74420;DHT22;62855;50.718;-2.460;2023-06-10T14:38:10;78.80;57.00
74420;DHT22;62855;50.718;-2.460;2023-06-10T14:41:06;78.80;58.00
74420;DHT22;62855;50.718;-2.460;2023-06-10T14:44:06;78.44;58.00
74420;DHT22;62855;50.718;-2.460;2023-06-10T14:47:06;78.08;59.00
74420;DHT22;62855;50.718;-2.460;2023-06-10T14:50:07;77.54;59.00
74420;DHT22;62855;50.718;-2.460;2023-06-10T14:53:06;77.36;60.00
74420;DHT22;62855;50.718;-2.460;2023-06-10T14:56:06;77.18;60.00
74420;DHT22;62855;50.718;-2.460;2023-06-10T14:59:06;77.18;60.00
74420;DHT22;62855;50.718;-2.460;2023-06-10T15:02:06;77.00;60.00
74420;DHT22;62855;50.718;-2.460;2023-06-10T15:05:07;77.18;61.00
74420;DHT22;62855;50.718;-2.460;2023-06-10T15:08:06;77.18;61.00
74420;DHT22;62855;50.718;-2.460;2023-06-10T15:11:06;77.18;61.00
74420;DHT22;62855;50.718;-2.460;2023-06-10T15:14:06;77.18;61.00
74420;DHT22;62855;50.718;-2.460;2023-06-10T15:17:06;77.36;61.00
74420;DHT22;62855;50.718;-2.460;2023-06-10T15:20:07;77.36;61.00
74420;DHT22;62855;50.718;-2.460;2023-06-10T15:23:07;77.36;61.00
74420;DHT22;62855;50.718;-2.460;2023-06-10T15:26:07;77.36;61.00
74420;DHT22;62855;50.718;-2.460;2023-06-10T15:29:06;77.54;62.00
74420;DHT22;62855;50.718;-2.460;2023-06-10T15:32:06;77.72;61.00
74420;DHT22;62855;50.718;-2.460;2023-06-10T15:35:07;77.90;61.00
74420;DHT22;62855;50.718;-2.460;2023-06-10T15:38:06;78.08;61.00
74420;DHT22;62855;50.718;-2.460;2023-06-10T15:41:06;78.26;61.00
74420;DHT22;62855;50.718;-2.460;2023-06-10T15:44:07;78.44;61.00
74420;DHT22;62855;50.718;-2.460;2023-06-10T15:47:06;78.62;61.00
74420;DHT22;62855;50.718;-2.460;2023-06-10T15:50:07;78.80;61.00
74420;DHT22;62855;50.718;-2.460;2023-06-10T15:53:06;78.80;61.00
74420;DHT22;62855;50.718;-2.460;2023-06-10T15:56:06;78.80;60.00
74420;DHT22;62855;50.718;-2.460;2023-06-10T15:59:06;78.80;60.00
74420;DHT22;62855;50.718;-2.460;2023-06-10T16:02:07;78.80;60.00
74420;DHT22;62855;50.718;-2.460;2023-06-10T16:05:06;78.80;60.00
74420;DHT22;62855;50.718;-2.460;2023-06-10T16:08:06;78.62;60.00
74420;DHT22;62855;50.718;-2.460;2023-06-10T16:11:06;78.62;61.00
74420;DHT22;62855;50.718;-2.460;2023-06-10T16:14:06;78.62;61.00
74420;DHT22;62855;50.718;-2.460;2023-06-10T16:17:07;78.62;61.00
74420;DHT22;62855;50.718;-2.460;2023-06-10T16:20:07;78.62;61.00
74420;DHT22;62855;50.718;-2.460;2023-06-10T16:23:06;78.44;61.00
74420;DHT22;62855;50.718;-2.460;2023-06-10T16:26:06;78.08;61.00
74420;DHT22;62855;50.718;-2.460;2023-06-10T16:29:06;77.72;61.00
74420;DHT22;62855;50.718;-2.460;2023-06-10T16:32:07;77.54;61.00
74420;DHT22;62855;50.718;-2.460;2023-06-10T16:35:06;77.36;61.00
74420;DHT22;62855;50.718;-2.460;2023-06-10T16:38:06;77.36;61.00
74420;DHT22;62855;50.718;-2.460;2023-06-10T16:41:06;77.36;61.00
74420;DHT22;62855;50.718;-2.460;2023-06-10T16:44:06;77.54;62.00
74420;DHT22;62855;50.718;-2.460;2023-06-10T16:47:06;77.72;61.00
74420;DHT22;62855;50.718;-2.460;2023-06-10T16:50:07;77.72;62.00
74420;DHT22;62855;50.718;-2.460;2023-06-10T16:53:07;77.72;62.00
74420;DHT22;62855;50.718;-2.460;2023-06-10T16:56:07;77.72;61.00
74420;DHT22;62855;50.718;-2.460;2023-06-10T16:59:06;77.54;62.00
74420;DHT22;62855;50.718;-2.460;2023-06-10T17:02:06;77.18;62.00
74420;DHT22;62855;50.718;-2.460;2023-06-10T17:05:07;76.82;62.00
74420;DHT22;62855;50.718;-2.460;2023-06-10T17:08:06;76.10;62.00
74420;DHT22;62855;50.718;-2.460;2023-06-10T17:11:06;75.20;62.00
74420;DHT22;62855;50.718;-2.460;2023-06-10T17:14:06;75.02;62.00
74420;DHT22;62855;50.718;-2.460;2023-06-10T17:17:06;74.66;62.00
74420;DHT22;62855;50.718;-2.460;2023-06-10T17:20:07;74.12;61.00
74420;DHT22;62855;50.718;-2.460;2023-06-10T17:23:06;73.58;60.00
74420;DHT22;62855;50.718;-2.460;2023-06-10T17:26:06;73.04;60.00
74420;DHT22;62855;50.718;-2.460;2023-06-10T17:29:06;72.68;60.00
74420;DHT22;62855;50.718;-2.460;2023-06-10T17:32:07;72.32;61.00
74420;DHT22;62855;50.718;-2.460;2023-06-10T17:35:06;72.14;60.00
74420;DHT22;62855;50.718;-2.460;2023-06-10T17:38:06;71.96;60.00
74420;DHT22;62855;50.718;-2.460;2023-06-10T17:41:06;71.60;60.00
74420;DHT22;62855;50.718;-2.460;2023-06-10T17:44:06;71.42;61.00
74420;DHT22;62855;50.718;-2.460;2023-06-10T17:47:06;71.42;61.00
74420;DHT22;62855;50.718;-2.460;2023-06-10T17:50:07;71.24;63.00
74420;DHT22;62855;50.718;-2.460;2023-06-10T17:53:06;71.24;63.00
74420;DHT22;62855;50.718;-2.460;2023-06-10T17:56:06;71.24;63.00
74420;DHT22;62855;50.718;-2.460;2023-06-10T17:59:06;71.24;63.00
74420;DHT22;62855;50.718;-2.460;2023-06-10T18:02:08;71.06;64.00
74420;DHT22;62855;50.718;-2.460;2023-06-10T18:05:06;70.88;64.00
74420;DHT22;62855;50.718;-2.460;2023-06-10T18:08:06;70.88;64.00
74420;DHT22;62855;50.718;-2.460;2023-06-10T18:11:06;70.70;64.00
74420;DHT22;62855;50.718;-2.460;2023-06-10T18:14:06;70.52;65.00
74420;DHT22;62855;50.718;-2.460;2023-06-10T18:17:07;70.52;65.00
74420;DHT22;62855;50.718;-2.460;2023-06-10T18:20:07;70.52;65.00
74420;DHT22;62855;50.718;-2.460;2023-06-10T18:23:06;70.34;65.00
74420;DHT22;62855;50.718;-2.460;2023-06-10T18:26:06;70.16;65.00
74420;DHT22;62855;50.718;-2.460;2023-06-10T18:29:06;69.98;66.00
74420;DHT22;62855;50.718;-2.460;2023-06-10T18:32:08;69.80;66.00
74420;DHT22;62855;50.718;-2.460;2023-06-10T18:35:07;69.62;66.00
74420;DHT22;62855;50.718;-2.460;2023-06-10T18:38:07;69.44;66.00
74420;DHT22;62855;50.718;-2.460;2023-06-10T18:41:06;69.44;66.00